KCXP

Details ICAO KCXP
Name Carson
Region United States
Timezone America/Los_Angeles (UTC-7.0)
Plans Departing 14
Arriving 21
Stats Elevation 4,697 ft / 1,432 m (AMSL)
Location 39.192232° -119.734450°
Runways 1
Magnetic Variation 13.288° E
Sunrise 2018-05-26 12:38:57 UTC / 2018-05-26 05:38:57 Local
Sunset 2018-05-27 03:15:58 UTC / 2018-05-26 20:15:58 Local
Advertisement - Login to hide

Runways

ID Width Length Bearing (true) Bearing (mag) Surface Threshold Offset Overrun Length
09 75 ft / 23 m 5,912 ft / 1,802 m 106.65° 93.36° Asphalt 0 ft / 0 m 0 ft / 0 m
27 75 ft / 23 m 5,912 ft / 1,802 m 286.67° 273.38° Asphalt 0 ft / 0 m 0 ft / 0 m

Map

Weather


0- 5 10 15 20 25 30 35+ Temperature / ° C

Clouds and Precipitation
Forecast for 2018-05-26 06:00 UTC. Updated 5 hours ago

Ground ~20,000 ft ~40,000 ft Winds

METAR

KCXP 260955Z AUTO 34003KT 10SM FEW060 07/03 A3002 RMK AO2

TAF

KCXP 260539Z 2606/2706 30006KT P6SM SCT060 SCT110 BKN180 FM261200 VRB05KT P6SM SCT060 SCT090 BKN180 FM261600 29009KT P6SM -SHRA SCT040 OVC070 FM262200 30008G16KT P6SM VCSH BKN060 BKN090 FM270100 31007KT P6SM SCT050 OVC110

Frequencies

Recorded 119.92 MHz AWOS 3
Unicom 123.00 MHz CTAF/UNICOM
Warning: Do not use this data for real-world aviation or navigation. No guarantee of current accuracy is given.